Time;durP1;ratioP1;P1;durP2;ratioP2;P2;SDS_P1;SDS_P2;PMS_P1;PMS_P2;Temp;Humidity;BMP_temperature;BMP_pressure;BME280_temperature;BME280_humidity;BME280_pressure;Samples;Min_cycle;Max_cycle;Signal;HPM_P1;HPM_P2
2021/09/21 00:02:09;;;;;;;;;;;20.50;50.60;;;;;;8435098;28;19944;-49
2021/09/21 00:06:10;;;;;;;;;;;20.50;50.60;;;;;;8435687;28;20250;-48
2021/09/21 00:10:10;;;;;;;;;;;20.50;50.60;;;;;;8434870;28;19920;-48
2021/09/21 00:14:11;;;;;;;;;;;20.50;50.60;;;;;;8434644;28;19920;-48
2021/09/21 00:18:11;;;;;;;;;;;20.50;51.10;;;;;;8434597;28;19920;-49
2021/09/21 00:22:12;;;;;;;;;;;20.50;50.50;;;;;;8433937;28;19912;-48
2021/09/21 00:26:12;;;;;;;;;;;20.50;50.60;;;;;;8434954;28;19920;-48
2021/09/21 00:30:15;;;;;;;;;;;20.50;50.60;;;;;;8434135;28;20003;-49
2021/09/21 00:34:16;;;;;;;;;;;20.50;50.50;;;;;;8433760;28;19916;-48
2021/09/21 00:38:17;;;;;;;;;;;20.50;50.60;;;;;;8433805;28;20380;-48
2021/09/21 00:42:25;;;;;;;;;;;20.50;50.50;;;;;;8434672;28;19912;-49
2021/09/21 00:46:26;;;;;;;;;;;20.50;50.50;;;;;;8432908;28;20003;-49
2021/09/21 00:50:27;;;;;;;;;;;20.50;50.50;;;;;;8433525;28;19916;-48
2021/09/21 00:54:28;;;;;;;;;;;20.40;50.50;;;;;;8433334;28;19920;-48
2021/09/21 00:58:28;;;;;;;;;;;20.50;50.50;;;;;;8433214;28;20327;-48
2021/09/21 01:02:28;;;;;;;;;;;20.40;50.40;;;;;;8433749;28;19912;-48
2021/09/21 01:06:29;;;;;;;;;;;20.40;50.40;;;;;;8433217;28;19924;-47
2021/09/21 01:10:31;;;;;;;;;;;20.50;50.50;;;;;;8403235;28;19976;-48
2021/09/21 01:14:31;;;;;;;;;;;20.40;50.40;;;;;;8399192;28;19920;-48
2021/09/21 01:18:32;;;;;;;;;;;20.40;50.50;;;;;;8399978;28;19920;-49
2021/09/21 01:22:33;;;;;;;;;;;20.40;50.40;;;;;;8398485;28;20436;-48
2021/09/21 01:26:33;;;;;;;;;;;20.40;50.40;;;;;;8398879;28;19986;-48
2021/09/21 01:35:12;;;;;;;;;;;20.40;50.40;;;;;;8413965;28;19943;-48
2021/09/21 01:39:13;;;;;;;;;;;20.40;50.40;;;;;;8366329;28;19917;-48
2021/09/21 01:43:13;;;;;;;;;;;20.40;50.40;;;;;;8364765;28;20417;-49
2021/09/21 01:47:15;;;;;;;;;;;20.40;50.30;;;;;;8365022;28;20267;-49
2021/09/21 01:51:19;;;;;;;;;;;20.40;50.40;;;;;;8365257;28;20323;-48
2021/09/21 01:58:18;;;;;;;;;;;20.40;50.50;;;;;;8365101;28;20016;-49
2021/09/21 01:59:40;;;;;;;;;;;20.40;50.30;;;;;;8398234;28;19920;-47
2021/09/21 02:03:42;;;;;;;;;;;20.30;50.30;;;;;;8373521;28;20014;-49
2021/09/21 02:07:42;;;;;;;;;;;20.30;50.30;;;;;;8364070;28;19917;-48
2021/09/21 02:11:44;;;;;;;;;;;20.40;50.40;;;;;;8364570;28;19978;-50
2021/09/21 02:15:44;;;;;;;;;;;20.30;50.30;;;;;;8364914;28;20012;-52
2021/09/21 02:19:45;;;;;;;;;;;20.30;50.30;;;;;;8363418;28;19962;-49
2021/09/21 02:23:46;;;;;;;;;;;20.40;50.40;;;;;;8363965;28;19924;-48
2021/09/21 02:27:46;;;;;;;;;;;20.30;50.20;;;;;;8363855;28;19916;-49
2021/09/21 02:31:47;;;;;;;;;;;20.40;50.40;;;;;;8364245;28;19913;-49
2021/09/21 02:35:47;;;;;;;;;;;20.30;50.30;;;;;;8363748;28;20382;-48
2021/09/21 02:39:47;;;;;;;;;;;20.30;50.20;;;;;;8363706;28;20043;-48
2021/09/21 02:43:48;;;;;;;;;;;20.30;50.20;;;;;;8363007;28;19987;-49
2021/09/21 02:47:48;;;;;;;;;;;20.30;50.20;;;;;;8363459;28;20362;-48
2021/09/21 02:51:49;;;;;;;;;;;20.30;50.10;;;;;;8364821;28;19935;-49
2021/09/21 02:55:49;;;;;;;;;;;20.30;50.20;;;;;;8362732;28;19916;-49
2021/09/21 02:59:50;;;;;;;;;;;20.30;50.20;;;;;;8377768;28;20266;-48
2021/09/21 03:03:55;;;;;;;;;;;20.30;50.20;;;;;;8362967;28;19972;-49
2021/09/21 03:08:06;;;;;;;;;;;20.30;50.30;;;;;;8363597;28;19913;-49
2021/09/21 03:12:26;;;;;;;;;;;20.30;50.30;;;;;;8363313;28;20012;-48
2021/09/21 03:20:45;;;;;;;;;;;20.30;50.10;;;;;;8368823;28;20012;-48
2021/09/21 03:24:46;;;;;;;;;;;20.20;50.10;;;;;;8362613;28;19920;-49
2021/09/21 03:28:46;;;;;;;;;;;20.20;50.10;;;;;;8364015;28;20014;-49
2021/09/21 03:32:47;;;;;;;;;;;20.20;50.20;;;;;;8369430;28;19962;-49
2021/09/21 03:36:47;;;;;;;;;;;20.20;50.10;;;;;;8369371;28;19920;-48
2021/09/21 03:40:48;;;;;;;;;;;20.20;50.10;;;;;;8368749;28;19916;-49
2021/09/21 03:44:48;;;;;;;;;;;20.20;50.10;;;;;;8369843;28;19983;-48
2021/09/21 03:48:49;;;;;;;;;;;20.20;50.10;;;;;;8369027;28;19986;-48
2021/09/21 03:52:49;;;;;;;;;;;20.20;50.10;;;;;;8368412;28;19917;-49
2021/09/21 03:56:50;;;;;;;;;;;20.20;50.00;;;;;;8368592;28;19913;-48
2021/09/21 04:00:50;;;;;;;;;;;20.20;50.10;;;;;;8368670;28;20444;-48
2021/09/21 04:04:51;;;;;;;;;;;20.20;50.00;;;;;;8368528;28;19921;-48
2021/09/21 04:08:52;;;;;;;;;;;20.20;50.00;;;;;;8368325;28;19928;-47
2021/09/21 04:12:52;;;;;;;;;;;20.10;50.00;;;;;;8367432;28;19949;-48
2021/09/21 04:16:53;;;;;;;;;;;20.20;50.00;;;;;;8367584;28;19940;-48
2021/09/21 04:20:53;;;;;;;;;;;20.20;50.10;;;;;;8368489;28;19975;-48
2021/09/21 04:24:54;;;;;;;;;;;20.20;50.10;;;;;;8367743;28;20457;-48
2021/09/21 04:28:55;;;;;;;;;;;20.10;50.00;;;;;;8367262;28;20370;-49
2021/09/21 04:32:55;;;;;;;;;;;20.10;50.00;;;;;;8367738;28;19924;-48
2021/09/21 04:36:57;;;;;;;;;;;20.10;50.00;;;;;;8367497;28;19921;-48
2021/09/21 04:40:57;;;;;;;;;;;20.10;50.00;;;;;;8366865;28;19913;-48
2021/09/21 04:44:58;;;;;;;;;;;20.10;49.90;;;;;;8367164;28;19924;-49
2021/09/21 04:48:58;;;;;;;;;;;20.10;49.90;;;;;;8367055;28;20004;-49
2021/09/21 04:52:59;;;;;;;;;;;20.10;49.90;;;;;;8366338;28;20332;-49
2021/09/21 04:56:59;;;;;;;;;;;20.10;50.00;;;;;;8367649;28;20395;-49
2021/09/21 05:01:00;;;;;;;;;;;20.10;49.90;;;;;;8366537;28;19917;-49
2021/09/21 05:05:00;;;;;;;;;;;20.10;49.90;;;;;;8366355;28;19960;-49
2021/09/21 05:09:01;;;;;;;;;;;20.10;49.90;;;;;;8366451;28;20016;-51
2021/09/21 05:13:01;;;;;;;;;;;20.10;49.90;;;;;;8366636;28;19923;-49
2021/09/21 05:17:02;;;;;;;;;;;20.10;49.90;;;;;;8366393;28;19928;-48
2021/09/21 05:21:02;;;;;;;;;;;20.10;50.00;;;;;;8366304;28;19917;-50
2021/09/21 05:25:03;;;;;;;;;;;20.10;49.90;;;;;;8365520;28;20270;-48
2021/09/21 05:29:04;;;;;;;;;;;20.10;49.90;;;;;;8365549;28;20370;-48
2021/09/21 05:33:05;;;;;;;;;;;20.10;49.90;;;;;;8366398;28;19945;-48
2021/09/21 05:37:05;;;;;;;;;;;20.00;49.80;;;;;;8365106;28;19924;-48
2021/09/21 05:41:06;;;;;;;;;;;20.00;49.80;;;;;;8365648;28;19917;-49
2021/09/21 05:45:08;;;;;;;;;;;20.00;49.90;;;;;;8365089;28;20377;-48
2021/09/21 05:49:09;;;;;;;;;;;20.00;49.80;;;;;;8365354;28;19923;-49
2021/09/21 05:53:09;;;;;;;;;;;20.00;49.80;;;;;;8364407;28;19916;-49
2021/09/21 05:57:10;;;;;;;;;;;20.00;49.70;;;;;;8364840;28;19995;-48
2021/09/21 06:01:10;;;;;;;;;;;20.00;49.80;;;;;;8364265;28;19947;-51
2021/09/21 06:05:11;;;;;;;;;;;20.00;49.80;;;;;;8365830;28;20043;-48
2021/09/21 06:09:11;;;;;;;;;;;20.00;49.70;;;;;;8364298;28;19928;-49
2021/09/21 06:13:12;;;;;;;;;;;20.00;49.70;;;;;;8363900;28;20022;-48
2021/09/21 06:17:12;;;;;;;;;;;20.00;49.70;;;;;;8364013;28;19956;-48
2021/09/21 06:21:13;;;;;;;;;;;20.00;49.70;;;;;;8364204;28;20301;-50
2021/09/21 06:25:14;;;;;;;;;;;20.00;49.70;;;;;;8364153;28;20374;-48
2021/09/21 06:29:15;;;;;;;;;;;20.10;49.70;;;;;;8364087;28;20294;-49
2021/09/21 06:33:16;;;;;;;;;;;20.10;49.80;;;;;;8363812;28;19923;-47
2021/09/21 06:37:16;;;;;;;;;;;20.10;49.70;;;;;;8363261;28;20302;-49
2021/09/21 06:41:17;;;;;;;;;;;20.00;49.60;;;;;;8364343;28;20437;-50
2021/09/21 06:45:17;;;;;;;;;;;20.10;49.70;;;;;;8363285;28;19924;-48
2021/09/21 06:49:18;;;;;;;;;;;20.00;49.70;;;;;;8363072;28;19916;-48
2021/09/21 06:53:18;;;;;;;;;;;20.00;49.70;;;;;;8363306;28;20373;-49
2021/09/21 06:57:18;;;;;;;;;;;20.00;49.70;;;;;;8363776;28;19948;-50
2021/09/21 07:01:19;;;;;;;;;;;20.00;49.70;;;;;;8363146;28;20381;-49
2021/09/21 07:05:20;;;;;;;;;;;20.00;49.80;;;;;;8372947;28;20037;-48
2021/09/21 07:09:21;;;;;;;;;;;20.00;49.80;;;;;;8395179;28;20289;-47
2021/09/21 07:13:21;;;;;;;;;;;20.00;49.70;;;;;;8395698;28;19916;-49
2021/09/21 07:17:22;;;;;;;;;;;20.00;49.80;;;;;;8397098;28;19913;-49
2021/09/21 07:21:22;;;;;;;;;;;20.00;49.70;;;;;;8396335;28;19969;-47
2021/09/21 07:25:24;;;;;;;;;;;20.00;49.80;;;;;;8395483;28;20365;-47
2021/09/21 07:29:24;;;;;;;;;;;20.00;49.80;;;;;;8396184;28;19917;-48
2021/09/21 07:33:24;;;;;;;;;;;20.00;49.80;;;;;;8396530;28;19927;-48
2021/09/21 07:37:25;;;;;;;;;;;20.00;49.80;;;;;;8395313;28;19916;-48
2021/09/21 07:41:25;;;;;;;;;;;20.00;49.90;;;;;;8396011;28;20007;-48
2021/09/21 07:45:26;;;;;;;;;;;20.00;49.80;;;;;;8395620;28;19978;-49
2021/09/21 07:49:26;;;;;;;;;;;20.10;49.80;;;;;;8395188;28;20327;-49
2021/09/21 07:53:27;;;;;;;;;;;20.10;49.70;;;;;;8396435;28;20396;-49
2021/09/21 07:57:27;;;;;;;;;;;20.10;49.80;;;;;;8395410;28;19917;-47
2021/09/21 08:01:28;;;;;;;;;;;20.10;49.70;;;;;;8394904;28;19916;-51
2021/09/21 08:05:28;;;;;;;;;;;20.00;49.70;;;;;;8395303;28;20403;-48
2021/09/21 08:09:29;;;;;;;;;;;20.00;49.70;;;;;;8396376;28;20258;-50
2021/09/21 08:13:30;;;;;;;;;;;20.10;49.80;;;;;;8394792;28;19924;-50
2021/09/21 08:17:30;;;;;;;;;;;20.10;49.80;;;;;;8399958;28;19924;-49
2021/09/21 08:21:31;;;;;;;;;;;20.10;49.70;;;;;;8401322;28;19985;-49
2021/09/21 08:25:31;;;;;;;;;;;20.10;49.70;;;;;;8401258;28;20400;-49
2021/09/21 08:29:32;;;;;;;;;;;20.10;49.70;;;;;;8400683;28;19925;-48
2021/09/21 08:33:32;;;;;;;;;;;20.10;49.70;;;;;;8400686;28;19916;-49
2021/09/21 08:37:33;;;;;;;;;;;20.10;49.70;;;;;;8400263;28;19923;-49
2021/09/21 08:41:34;;;;;;;;;;;20.10;49.70;;;;;;8400401;28;19913;-50
2021/09/21 08:45:35;;;;;;;;;;;20.10;49.70;;;;;;8401081;28;20325;-50
2021/09/21 08:49:35;;;;;;;;;;;20.10;49.70;;;;;;8399713;28;19917;-49
2021/09/21 08:53:36;;;;;;;;;;;20.10;49.70;;;;;;8400023;28;19916;-50
2021/09/21 08:57:37;;;;;;;;;;;20.20;49.70;;;;;;8400015;28;20002;-49
2021/09/21 09:01:41;;;;;;;;;;;20.10;49.60;;;;;;8400194;28;20266;-49
2021/09/21 09:05:47;;;;;;;;;;;20.10;49.60;;;;;;8399697;28;19925;-50
2021/09/21 09:09:47;;;;;;;;;;;20.10;49.70;;;;;;8400065;28;19920;-50
2021/09/21 09:13:52;;;;;;;;;;;20.20;49.80;;;;;;8399013;28;19917;-49
2021/09/21 09:17:54;;;;;;;;;;;20.10;49.60;;;;;;8399619;28;19917;-49
2021/09/21 09:22:02;;;;;;;;;;;20.20;49.70;;;;;;8399830;28;19917;-48
2021/09/21 09:26:02;;;;;;;;;;;20.20;49.70;;;;;;8397991;28;19974;-52
2021/09/21 09:30:05;;;;;;;;;;;20.20;49.70;;;;;;8398984;28;19962;-52
2021/09/21 09:34:05;;;;;;;;;;;20.20;49.70;;;;;;8398286;28;20399;-50
2021/09/21 09:38:10;;;;;;;;;;;20.20;49.70;;;;;;8399674;28;19995;-48
2021/09/21 09:42:12;;;;;;;;;;;20.20;49.70;;;;;;8398447;28;19923;-48
2021/09/21 09:46:16;;;;;;;;;;;20.20;49.70;;;;;;8398031;28;19925;-48
2021/09/21 09:50:16;;;;;;;;;;;20.30;49.70;;;;;;8398528;28;19977;-50
2021/09/21 09:54:17;;;;;;;;;;;20.20;49.60;;;;;;8398249;28;19912;-49
2021/09/21 09:58:18;;;;;;;;;;;20.30;49.60;;;;;;8398340;28;20404;-49
2021/09/21 10:02:20;;;;;;;;;;;20.30;49.60;;;;;;8397755;28;19917;-49
2021/09/21 10:06:20;;;;;;;;;;;20.30;49.60;;;;;;8397615;28;19924;-48
2021/09/21 10:10:21;;;;;;;;;;;20.30;49.50;;;;;;8378014;28;19925;-50
2021/09/21 10:14:23;;;;;;;;;;;20.30;49.50;;;;;;8365439;28;19962;-49
2021/09/21 10:18:25;;;;;;;;;;;20.30;49.40;;;;;;8364532;28;19952;-49
2021/09/21 10:22:30;;;;;;;;;;;20.40;49.50;;;;;;8363855;28;19921;-49
2021/09/21 10:26:32;;;;;;;;;;;20.40;49.50;;;;;;8364193;28;20055;-51
2021/09/21 10:30:32;;;;;;;;;;;20.40;49.40;;;;;;8364626;28;19925;-50
2021/09/21 10:34:40;;;;;;;;;;;20.40;49.40;;;;;;8363727;28;20437;-49
2021/09/21 10:38:50;;;;;;;;;;;20.50;49.50;;;;;;8363412;28;19927;-49
2021/09/21 10:42:51;;;;;;;;;;;20.40;49.40;;;;;;8363850;28;19920;-49
2021/09/21 10:46:56;;;;;;;;;;;20.50;49.50;;;;;;8363064;28;20024;-50
2021/09/21 10:50:58;;;;;;;;;;;20.50;49.50;;;;;;8364618;28;20381;-51
2021/09/21 10:54:58;;;;;;;;;;;20.50;49.50;;;;;;8363530;28;19923;-49
2021/09/21 10:58:59;;;;;;;;;;;20.50;49.50;;;;;;8362767;28;19916;-49
2021/09/21 11:03:00;;;;;;;;;;;20.50;49.40;;;;;;8363387;28;20370;-53
2021/09/21 11:07:01;;;;;;;;;;;20.50;49.40;;;;;;8362923;28;19925;-49
2021/09/21 11:11:04;;;;;;;;;;;20.50;49.50;;;;;;8363858;28;19967;-51
2021/09/21 11:15:09;;;;;;;;;;;20.50;49.40;;;;;;8363111;28;19992;-48
2021/09/21 11:19:09;;;;;;;;;;;20.50;49.40;;;;;;8362587;28;19920;-49
2021/09/21 11:23:10;;;;;;;;;;;20.50;49.40;;;;;;8362790;28;19913;-48
2021/09/21 11:27:11;;;;;;;;;;;20.60;49.40;;;;;;8363669;28;19959;-51
2021/09/21 11:31:12;;;;;;;;;;;20.50;49.30;;;;;;8362403;28;19962;-49
2021/09/21 11:35:14;;;;;;;;;;;20.50;49.30;;;;;;8363089;28;19956;-49
2021/09/21 11:39:14;;;;;;;;;;;20.50;49.40;;;;;;8362925;28;19917;-49
2021/09/21 11:43:15;;;;;;;;;;;20.60;49.30;;;;;;8362873;28;19921;-49
2021/09/21 11:47:17;;;;;;;;;;;20.60;49.30;;;;;;8362737;28;19925;-48
2021/09/21 11:51:17;;;;;;;;;;;20.60;49.30;;;;;;8366158;28;19924;-51
2021/09/21 11:55:19;;;;;;;;;;;20.60;49.20;;;;;;8368342;28;20399;-48
2021/09/21 11:59:20;;;;;;;;;;;20.70;49.30;;;;;;8368682;28;20015;-52
2021/09/21 12:03:22;;;;;;;;;;;20.60;49.20;;;;;;8369403;28;20008;-49
2021/09/21 12:07:23;;;;;;;;;;;20.60;49.30;;;;;;8367709;28;20411;-49
2021/09/21 12:11:24;;;;;;;;;;;20.70;49.20;;;;;;8368436;28;19921;-49
2021/09/21 12:15:25;;;;;;;;;;;20.70;49.20;;;;;;8368311;28;19912;-50
2021/09/21 12:19:26;;;;;;;;;;;20.70;49.20;;;;;;8368520;28;19924;-49
2021/09/21 12:23:30;;;;;;;;;;;20.70;49.20;;;;;;8367315;28;21323;-50
2021/09/21 12:27:33;;;;;;;;;;;20.70;49.10;;;;;;8367713;28;20012;-51
2021/09/21 12:31:34;;;;;;;;;;;20.70;49.20;;;;;;8367053;28;19917;-48
2021/09/21 12:35:36;;;;;;;;;;;20.70;49.10;;;;;;8367472;28;20054;-51
2021/09/21 12:39:37;;;;;;;;;;;20.70;49.20;;;;;;8368504;28;19927;-51
2021/09/21 12:43:45;;;;;;;;;;;20.70;49.10;;;;;;8366941;28;19924;-51
2021/09/21 12:47:45;;;;;;;;;;;20.70;49.10;;;;;;8367521;28;20532;-53
2021/09/21 12:51:47;;;;;;;;;;;20.70;49.10;;;;;;8367143;28;20007;-50
2021/09/21 12:55:55;;;;;;;;;;;20.80;49.70;;;;;;8367149;28;19924;-48
2021/09/21 12:59:55;;;;;;;;;;;20.80;49.10;;;;;;8366508;28;19920;-51
2021/09/21 13:03:56;;;;;;;;;;;20.80;49.10;;;;;;8365782;28;20026;-48
2021/09/21 13:07:56;;;;;;;;;;;20.80;49.10;;;;;;8365982;28;19917;-48
2021/09/21 13:11:57;;;;;;;;;;;20.90;49.10;;;;;;8365861;28;19929;-52
2021/09/21 13:15:57;;;;;;;;;;;20.80;49.10;;;;;;8366687;28;19962;-49
2021/09/21 13:19:58;;;;;;;;;;;20.90;49.00;;;;;;8365497;28;19923;-50
2021/09/21 13:23:58;;;;;;;;;;;20.90;49.00;;;;;;8365775;28;20003;-50
2021/09/21 13:28:00;;;;;;;;;;;20.90;49.00;;;;;;8365497;28;20297;-52
2021/09/21 13:32:00;;;;;;;;;;;20.90;49.00;;;;;;8365974;28;20003;-48
2021/09/21 13:36:00;;;;;;;;;;;20.90;49.00;;;;;;8364177;28;20274;-50
2021/09/21 13:40:01;;;;;;;;;;;20.90;49.00;;;;;;8365125;28;19917;-47
2021/09/21 13:44:02;;;;;;;;;;;20.90;49.00;;;;;;8365524;28;19916;-52
2021/09/21 13:48:02;;;;;;;;;;;20.90;49.00;;;;;;8366160;28;19921;-49
2021/09/21 13:52:03;;;;;;;;;;;20.90;49.00;;;;;;8364616;28;19951;-52
2021/09/21 13:56:04;;;;;;;;;;;20.90;49.00;;;;;;8364773;28;19963;-49
2021/09/21 14:00:06;;;;;;;;;;;20.90;49.00;;;;;;8364912;28;19916;-50
2021/09/21 14:04:06;;;;;;;;;;;20.90;49.00;;;;;;8364314;28;20309;-51
2021/09/21 14:08:07;;;;;;;;;;;20.90;49.00;;;;;;8364053;28;19996;-52
2021/09/21 14:12:08;;;;;;;;;;;20.90;49.00;;;;;;8364169;28;20089;-52
2021/09/21 14:16:09;;;;;;;;;;;20.90;49.00;;;;;;8363814;28;19919;-52
2021/09/21 14:20:10;;;;;;;;;;;20.90;49.00;;;;;;8364652;28;20326;-49
2021/09/21 14:24:11;;;;;;;;;;;20.90;49.00;;;;;;8364816;28;20369;-51
2021/09/21 14:28:12;;;;;;;;;;;20.90;48.90;;;;;;8363609;28;19917;-52
2021/09/21 14:32:12;;;;;;;;;;;20.90;48.90;;;;;;8363728;28;20305;-51
2021/09/21 14:36:13;;;;;;;;;;;20.90;48.90;;;;;;8364055;28;20396;-52
2021/09/21 14:40:14;;;;;;;;;;;20.90;48.90;;;;;;8363565;28;19916;-53
2021/09/21 14:44:15;;;;;;;;;;;21.00;49.00;;;;;;8364028;28;19960;-53
2021/09/21 14:48:15;;;;;;;;;;;20.90;48.90;;;;;;8363721;28;19917;-51
2021/09/21 14:52:16;;;;;;;;;;;20.90;48.90;;;;;;8363065;28;19913;-53
2021/09/21 14:56:17;;;;;;;;;;;20.90;48.90;;;;;;8363214;28;19920;-49
2021/09/21 15:00:19;;;;;;;;;;;20.90;48.90;;;;;;8363908;28;19951;-52
2021/09/21 15:04:19;;;;;;;;;;;21.00;48.90;;;;;;8362452;28;19928;-50
2021/09/21 15:08:20;;;;;;;;;;;20.90;48.90;;;;;;8362697;28;19917;-50
2021/09/21 15:12:20;;;;;;;;;;;21.00;48.90;;;;;;8362875;28;20294;-49
2021/09/21 15:16:21;;;;;;;;;;;21.00;48.90;;;;;;8363397;28;19920;-48
2021/09/21 15:20:21;;;;;;;;;;;21.00;48.90;;;;;;8362994;28;19970;-48
2021/09/21 15:24:21;;;;;;;;;;;21.00;48.90;;;;;;8364696;28;19921;-51
2021/09/21 15:28:24;;;;;;;;;;;21.00;48.90;;;;;;8369111;28;20035;-53
2021/09/21 15:32:24;;;;;;;;;;;21.00;48.80;;;;;;8369758;28;19916;-49
2021/09/21 15:36:25;;;;;;;;;;;21.00;48.90;;;;;;8370268;28;19956;-54
2021/09/21 15:40:25;;;;;;;;;;;21.00;48.90;;;;;;8369054;28;20274;-52
2021/09/21 15:44:28;;;;;;;;;;;21.00;48.80;;;;;;8369148;28;19925;-53
2021/09/21 15:48:29;;;;;;;;;;;21.00;48.90;;;;;;8369068;28;19952;-50
2021/09/21 15:52:29;;;;;;;;;;;21.00;48.80;;;;;;8369334;28;20358;-50
2021/09/21 15:56:30;;;;;;;;;;;21.00;48.80;;;;;;8368766;28;20313;-50
2021/09/21 16:00:32;;;;;;;;;;;21.00;48.80;;;;;;8368722;28;20004;-51
2021/09/21 16:04:35;;;;;;;;;;;21.00;48.80;;;;;;8367563;28;19971;-49
2021/09/21 16:08:35;;;;;;;;;;;21.00;48.80;;;;;;8368648;28;19920;-52
2021/09/21 16:12:36;;;;;;;;;;;21.00;48.80;;;;;;8368362;28;19917;-52
2021/09/21 16:16:36;;;;;;;;;;;21.00;48.80;;;;;;8367381;28;19924;-51
2021/09/21 16:20:39;;;;;;;;;;;21.00;48.80;;;;;;8367850;28;20330;-51
2021/09/21 16:24:39;;;;;;;;;;;21.00;48.80;;;;;;8368149;28;19989;-50
2021/09/21 16:28:40;;;;;;;;;;;20.90;48.70;;;;;;8368108;28;19921;-50
2021/09/21 16:32:42;;;;;;;;;;;21.00;48.80;;;;;;8367884;28;19924;-50
2021/09/21 16:36:43;;;;;;;;;;;21.00;48.90;;;;;;8366931;28;19917;-49
2021/09/21 16:40:45;;;;;;;;;;;21.00;48.80;;;;;;8366953;28;19962;-49
2021/09/21 16:44:46;;;;;;;;;;;21.00;48.90;;;;;;8368286;28;20286;-50
2021/09/21 16:48:46;;;;;;;;;;;21.00;48.90;;;;;;8367166;28;19962;-52
2021/09/21 16:52:47;;;;;;;;;;;20.90;48.80;;;;;;8366507;28;19924;-52
2021/09/21 16:56:47;;;;;;;;;;;20.90;48.90;;;;;;8366868;28;19959;-49
2021/09/21 17:00:48;;;;;;;;;;;21.00;48.90;;;;;;8366834;28;19916;-51
2021/09/21 17:04:49;;;;;;;;;;;20.90;48.90;;;;;;8366920;28;19924;-49
2021/09/21 17:08:50;;;;;;;;;;;21.00;48.90;;;;;;8366892;28;19927;-51
2021/09/21 17:12:50;;;;;;;;;;;20.90;48.90;;;;;;8366464;28;19952;-49
2021/09/21 17:16:51;;;;;;;;;;;20.90;48.90;;;;;;8365606;28;19917;-49
2021/09/21 17:20:52;;;;;;;;;;;20.90;48.90;;;;;;8366454;28;19912;-50
2021/09/21 17:24:53;;;;;;;;;;;20.90;48.90;;;;;;8365781;28;19960;-49
2021/09/21 17:28:55;;;;;;;;;;;20.90;48.90;;;;;;8365411;28;19932;-51
2021/09/21 17:32:55;;;;;;;;;;;20.90;49.00;;;;;;8365846;28;19921;-50
2021/09/21 17:36:56;;;;;;;;;;;20.90;49.00;;;;;;8366317;28;19935;-51
2021/09/21 17:40:56;;;;;;;;;;;20.90;49.00;;;;;;8365080;28;19923;-52
2021/09/21 17:44:56;;;;;;;;;;;20.90;49.00;;;;;;8365589;28;20023;-51
2021/09/21 17:48:57;;;;;;;;;;;20.90;49.00;;;;;;8364319;28;19920;-52
2021/09/21 17:52:58;;;;;;;;;;;20.90;49.00;;;;;;8364736;28;19925;-50
2021/09/21 17:56:58;;;;;;;;;;;20.90;49.00;;;;;;8366042;28;20000;-51
2021/09/21 18:01:00;;;;;;;;;;;20.90;49.00;;;;;;8364778;28;20366;-49
2021/09/21 18:05:00;;;;;;;;;;;20.90;49.00;;;;;;8364635;28;19947;-50
2021/09/21 18:09:01;;;;;;;;;;;20.90;49.00;;;;;;8364653;28;19920;-48
2021/09/21 18:13:03;;;;;;;;;;;20.90;49.00;;;;;;8364850;28;19920;-48
2021/09/21 18:17:15;;;;;;;;;;;20.90;49.00;;;;;;8364662;28;19920;-51
2021/09/21 18:21:40;;;;;;;;;;;20.90;49.00;;;;;;8364193;28;19917;-51
2021/09/21 18:25:42;;;;;;;;;;;20.90;49.00;;;;;;8335373;28;20305;-49
2021/09/21 18:29:42;;;;;;;;;;;20.90;49.10;;;;;;8364378;28;20000;-50
2021/09/21 18:33:43;;;;;;;;;;;20.80;49.10;;;;;;8364489;28;19921;-51
2021/09/21 18:37:43;;;;;;;;;;;20.90;49.10;;;;;;8363451;28;19923;-48
2021/09/21 18:41:44;;;;;;;;;;;20.90;49.10;;;;;;8363911;28;19970;-51
2021/09/21 18:45:44;;;;;;;;;;;20.90;49.00;;;;;;8363441;28;19925;-48
2021/09/21 18:49:45;;;;;;;;;;;20.90;49.10;;;;;;8363799;28;20375;-48
2021/09/21 18:53:45;;;;;;;;;;;20.90;49.10;;;;;;8363505;28;20263;-48
2021/09/21 18:57:46;;;;;;;;;;;20.90;49.10;;;;;;8363305;28;19917;-48
2021/09/21 19:01:47;;;;;;;;;;;20.90;49.10;;;;;;8362698;28;19923;-48
2021/09/21 19:05:47;;;;;;;;;;;20.80;49.00;;;;;;8363134;28;19964;-51
2021/09/21 19:09:48;;;;;;;;;;;20.80;49.10;;;;;;8371575;28;19927;-49
2021/09/21 19:13:48;;;;;;;;;;;20.80;49.10;;;;;;8395694;28;19916;-49
2021/09/21 19:17:49;;;;;;;;;;;20.80;49.00;;;;;;8396210;28;19995;-50
2021/09/21 19:21:49;;;;;;;;;;;20.80;49.10;;;;;;8395957;28;19916;-49
2021/09/21 19:25:49;;;;;;;;;;;20.80;49.00;;;;;;8396276;28;19927;-50
2021/09/21 19:29:50;;;;;;;;;;;20.80;49.10;;;;;;8395933;28;20435;-49
2021/09/21 19:33:50;;;;;;;;;;;20.80;49.00;;;;;;8395840;28;20320;-49
2021/09/21 19:37:53;;;;;;;;;;;20.80;49.10;;;;;;8395392;28;20293;-51
2021/09/21 19:41:53;;;;;;;;;;;20.80;49.00;;;;;;8395981;28;20288;-52
2021/09/21 19:45:54;;;;;;;;;;;20.80;49.10;;;;;;8396096;28;19920;-50
2021/09/21 19:49:55;;;;;;;;;;;20.80;49.00;;;;;;8395203;28;19917;-50
2021/09/21 19:53:55;;;;;;;;;;;20.80;49.00;;;;;;8395695;28;19943;-49
2021/09/21 19:57:56;;;;;;;;;;;20.80;49.00;;;;;;8395915;28;19931;-48
2021/09/21 20:01:57;;;;;;;;;;;20.80;49.00;;;;;;8395729;28;19912;-49
2021/09/21 20:05:58;;;;;;;;;;;20.80;49.10;;;;;;8395280;28;19928;-49
2021/09/21 20:09:59;;;;;;;;;;;20.80;49.10;;;;;;8396097;28;20066;-49
2021/09/21 20:13:59;;;;;;;;;;;20.80;49.00;;;;;;8400684;28;19916;-49
2021/09/21 20:18:02;;;;;;;;;;;20.70;48.90;;;;;;8402030;28;20349;-48
2021/09/21 20:22:04;;;;;;;;;;;20.70;48.90;;;;;;8400724;28;20300;-48
2021/09/21 20:26:05;;;;;;;;;;;20.80;49.00;;;;;;8401175;28;20396;-49
2021/09/21 20:30:07;;;;;;;;;;;20.70;48.90;;;;;;8401121;28;19916;-48
2021/09/21 20:34:14;;;;;;;;;;;20.70;48.90;;;;;;8400420;28;19913;-47
2021/09/21 20:38:16;;;;;;;;;;;20.70;48.90;;;;;;8401633;28;19996;-48
2021/09/21 20:42:17;;;;;;;;;;;20.70;48.90;;;;;;8400812;28;19963;-49
2021/09/21 20:46:17;;;;;;;;;;;20.70;49.00;;;;;;8400253;28;19925;-50
2021/09/21 20:50:18;;;;;;;;;;;20.70;49.00;;;;;;8400603;28;19982;-49
2021/09/21 20:54:18;;;;;;;;;;;20.70;49.00;;;;;;8401034;28;20274;-49
2021/09/21 20:58:19;;;;;;;;;;;20.70;48.90;;;;;;8399500;28;19978;-50
2021/09/21 21:02:19;;;;;;;;;;;20.70;48.90;;;;;;8400149;28;20366;-48
2021/09/21 21:06:20;;;;;;;;;;;20.70;48.90;;;;;;8399792;28;19924;-48
2021/09/21 21:10:20;;;;;;;;;;;20.70;48.90;;;;;;8399489;28;19978;-49
2021/09/21 21:14:21;;;;;;;;;;;20.70;49.00;;;;;;8400109;28;19916;-49
2021/09/21 21:18:21;;;;;;;;;;;20.70;48.90;;;;;;8399545;28;19999;-50
2021/09/21 21:22:22;;;;;;;;;;;20.70;49.00;;;;;;8399136;28;20103;-49
2021/09/21 21:26:23;;;;;;;;;;;20.70;48.90;;;;;;8399052;28;19920;-49
2021/09/21 21:30:23;;;;;;;;;;;20.70;49.00;;;;;;8400000;28;19929;-50
2021/09/21 21:34:24;;;;;;;;;;;20.70;49.00;;;;;;8398499;28;19916;-52
2021/09/21 21:38:25;;;;;;;;;;;20.70;49.00;;;;;;8398867;28;19916;-53
2021/09/21 21:42:26;;;;;;;;;;;20.70;49.00;;;;;;8398663;28;19919;-49
2021/09/21 21:46:27;;;;;;;;;;;20.70;49.00;;;;;;8398655;28;19929;-48
2021/09/21 21:50:28;;;;;;;;;;;20.60;49.00;;;;;;8398345;28;19916;-48
2021/09/21 21:54:28;;;;;;;;;;;20.60;48.90;;;;;;8398178;28;19916;-49
2021/09/21 21:58:29;;;;;;;;;;;20.60;48.80;;;;;;8397563;28;19952;-47
2021/09/21 22:02:29;;;;;;;;;;;20.60;48.80;;;;;;8396479;28;19920;-48
2021/09/21 22:06:29;;;;;;;;;;;20.60;48.90;;;;;;8398506;28;20404;-47
2021/09/21 22:10:30;;;;;;;;;;;20.60;48.90;;;;;;8397563;28;19928;-48
2021/09/21 22:14:30;;;;;;;;;;;20.60;48.90;;;;;;8398000;28;20423;-48
2021/09/21 22:18:31;;;;;;;;;;;20.60;48.90;;;;;;8397405;28;19912;-48
2021/09/21 22:22:31;;;;;;;;;;;20.60;48.80;;;;;;8397730;28;19928;-50
2021/09/21 22:26:32;;;;;;;;;;;20.60;48.90;;;;;;8397055;28;19929;-48
2021/09/21 22:30:32;;;;;;;;;;;20.60;48.80;;;;;;8397138;28;19913;-48
2021/09/21 22:34:33;;;;;;;;;;;20.60;48.80;;;;;;8396131;28;19927;-48
2021/09/21 22:38:34;;;;;;;;;;;20.60;48.80;;;;;;8397480;28;19922;-48
2021/09/21 22:42:35;;;;;;;;;;;20.60;48.80;;;;;;8397068;28;20026;-49
2021/09/21 22:46:35;;;;;;;;;;;20.60;48.80;;;;;;8396270;28;19931;-49
2021/09/21 22:50:36;;;;;;;;;;;20.50;48.80;;;;;;8396718;28;19947;-49
2021/09/21 22:54:36;;;;;;;;;;;20.60;48.80;;;;;;8396695;28;19932;-48
2021/09/21 22:58:37;;;;;;;;;;;20.50;48.80;;;;;;8396942;28;19912;-49
2021/09/21 23:02:37;;;;;;;;;;;20.50;48.70;;;;;;8396315;28;20271;-49
2021/09/21 23:06:38;;;;;;;;;;;20.50;48.80;;;;;;8396304;28;19924;-49
2021/09/21 23:10:38;;;;;;;;;;;20.50;48.70;;;;;;8396057;28;20377;-48
2021/09/21 23:14:39;;;;;;;;;;;20.50;48.80;;;;;;8397345;28;20000;-49
2021/09/21 23:18:39;;;;;;;;;;;20.50;48.70;;;;;;8396243;28;19917;-49
2021/09/21 23:22:40;;;;;;;;;;;20.50;48.70;;;;;;8395730;28;19920;-48
2021/09/21 23:26:40;;;;;;;;;;;20.50;48.70;;;;;;8395950;28;19924;-47
2021/09/21 23:30:41;;;;;;;;;;;20.50;48.70;;;;;;8396460;28;19916;-48